Time;durP1;ratioP1;P1;durP2;ratioP2;P2;SDS_P1;SDS_P2;PMS_P1;PMS_P2;Temp;Humidity;BMP_temperature;BMP_pressure;BME280_temperature;BME280_humidity;BME280_pressure;Samples;Min_cycle;Max_cycle;Signal;HPM_P1;HPM_P2
2021/09/16 00:00:29;;;;;;;0.97;0.80;;;;;;;;;;5031093;28;20530;-74
2021/09/16 00:02:56;;;;;;;1.63;1.53;;;;;;;;;;5031249;28;20442;-74
2021/09/16 00:05:22;;;;;;;0.80;0.80;;;;;;;;;;5030967;28;20806;-74
2021/09/16 00:07:50;;;;;;;0.80;0.80;;;;;;;;;;5029921;28;21077;-74
2021/09/16 00:10:16;;;;;;;1.17;1.07;;;;;;;;;;5029740;28;20441;-74
2021/09/16 00:12:42;;;;;;;0.90;0.60;;;;;;;;;;5030578;28;20954;-74
2021/09/16 00:15:09;;;;;;;0.93;0.93;;;;;;;;;;5034018;28;20494;-74
2021/09/16 00:17:35;;;;;;;0.70;0.50;;;;;;;;;;5040795;28;20477;-74
2021/09/16 00:20:01;;;;;;;1.17;0.90;;;;;;;;;;5031301;28;20509;-74
2021/09/16 00:22:27;;;;;;;0.80;0.73;;;;;;;;;;5030955;28;20424;-74
2021/09/16 00:24:53;;;;;;;0.70;0.50;;;;;;;;;;5031280;28;20795;-74
2021/09/16 00:27:19;;;;;;;0.70;0.50;;;;;;;;;;5029684;28;20766;-74
2021/09/16 00:29:45;;;;;;;0.80;0.70;;;;;;;;;;5030318;28;20488;-74
2021/09/16 00:32:11;;;;;;;0.70;0.67;;;;;;;;;;5031351;28;20439;-74
2021/09/16 00:34:37;;;;;;;0.70;0.50;;;;;;;;;;5030476;28;20481;-74
2021/09/16 00:37:04;;;;;;;0.70;0.50;;;;;;;;;;5032386;28;20930;-74
2021/09/16 00:39:30;;;;;;;0.70;0.50;;;;;;;;;;5034627;28;20486;-74
2021/09/16 00:41:56;;;;;;;1.23;0.80;;;;;;;;;;5026309;28;20469;-74
2021/09/16 00:44:22;;;;;;;0.70;0.60;;;;;;;;;;5014928;28;20459;-74
2021/09/16 00:46:48;;;;;;;0.70;0.60;;;;;;;;;;5041289;28;20423;-74
2021/09/16 00:49:13;;;;;;;0.70;0.60;;;;;;;;;;5034965;28;20424;-74
2021/09/16 00:51:40;;;;;;;1.00;0.77;;;;;;;;;;5023852;28;20454;-74
2021/09/16 00:54:06;;;;;;;0.80;0.80;;;;;;;;;;5015009;28;20439;-74
2021/09/16 00:56:32;;;;;;;0.70;0.60;;;;;;;;;;5031863;28;20445;-74
2021/09/16 00:58:59;;;;;;;0.70;0.60;;;;;;;;;;5034634;28;20984;-74
2021/09/16 01:01:25;;;;;;;0.80;0.77;;;;;;;;;;5033298;28;20447;-74
2021/09/16 01:03:53;;;;;;;0.90;0.90;;;;;;;;;;5034673;28;21052;-74
2021/09/16 01:06:19;;;;;;;0.80;0.80;;;;;;;;;;5033506;28;20419;-74
2021/09/16 01:08:45;;;;;;;0.87;0.87;;;;;;;;;;5034736;28;20426;-74
2021/09/16 01:11:11;;;;;;;0.70;0.60;;;;;;;;;;5029179;28;20456;-74
2021/09/16 01:13:37;;;;;;;0.70;0.60;;;;;;;;;;5014379;28;20416;-74
2021/09/16 01:16:03;;;;;;;0.70;0.50;;;;;;;;;;5035748;28;20430;-74
2021/09/16 01:18:29;;;;;;;0.80;0.70;;;;;;;;;;5036601;28;20446;-74
2021/09/16 01:20:55;;;;;;;0.70;0.60;;;;;;;;;;5032769;28;20224;-74
2021/09/16 01:23:24;;;;;;;1.30;0.80;;;;;;;;;;5021878;28;20501;-74
2021/09/16 01:25:50;;;;;;;1.23;0.70;;;;;;;;;;5032413;28;20486;-74
2021/09/16 01:28:16;;;;;;;0.93;0.93;;;;;;;;;;5033370;28;20831;-74
2021/09/16 01:30:44;;;;;;;0.70;0.67;;;;;;;;;;5033703;28;20284;-74
2021/09/16 01:33:10;;;;;;;0.80;0.70;;;;;;;;;;5015930;28;20428;-74
2021/09/16 01:35:37;;;;;;;0.80;0.57;;;;;;;;;;5030293;28;20241;-74
2021/09/16 01:38:03;;;;;;;0.90;0.70;;;;;;;;;;5015283;28;20927;-74
2021/09/16 01:40:29;;;;;;;0.80;0.70;;;;;;;;;;5003150;28;20204;-74
2021/09/16 01:42:55;;;;;;;0.80;0.80;;;;;;;;;;5032835;28;20472;-74
2021/09/16 01:45:22;;;;;;;0.80;0.50;;;;;;;;;;5028682;28;20434;-73
2021/09/16 01:47:49;;;;;;;0.80;0.60;;;;;;;;;;5039038;28;20421;-74
2021/09/16 01:50:16;;;;;;;0.80;0.70;;;;;;;;;;5033600;28;20683;-74
2021/09/16 01:52:42;;;;;;;1.90;1.80;;;;;;;;;;5033793;28;20182;-74
2021/09/16 01:55:08;;;;;;;0.80;0.60;;;;;;;;;;5032812;28;20182;-74
2021/09/16 01:57:34;;;;;;;0.80;0.60;;;;;;;;;;5029156;28;20430;-74
2021/09/16 02:00:00;;;;;;;0.80;0.70;;;;;;;;;;5032435;28;20960;-74
2021/09/16 02:02:26;;;;;;;0.95;0.73;;;;;;;;;;5028673;28;20191;-74
2021/09/16 02:04:52;;;;;;;0.80;0.60;;;;;;;;;;5033752;28;20225;-74
2021/09/16 02:07:18;;;;;;;0.80;0.60;;;;;;;;;;5032151;28;20434;-74
2021/09/16 02:09:44;;;;;;;0.80;0.60;;;;;;;;;;5032974;28;20503;-74
2021/09/16 02:12:10;;;;;;;0.80;0.67;;;;;;;;;;5032550;28;20438;-74
2021/09/16 02:14:36;;;;;;;0.90;0.70;;;;;;;;;;5033428;28;20766;-74
2021/09/16 02:17:02;;;;;;;0.80;0.60;;;;;;;;;;5037385;28;20179;-74
2021/09/16 02:19:28;;;;;;;0.80;0.60;;;;;;;;;;5033295;28;20410;-74
2021/09/16 02:21:54;;;;;;;0.80;0.60;;;;;;;;;;5017881;28;20229;-74
2021/09/16 02:24:20;;;;;;;0.90;0.73;;;;;;;;;;5019213;28;20554;-74
2021/09/16 02:26:46;;;;;;;0.80;0.60;;;;;;;;;;5030745;28;20432;-74
2021/09/16 02:29:12;;;;;;;0.80;0.60;;;;;;;;;;5032893;28;20648;-74
2021/09/16 02:31:38;;;;;;;0.80;0.60;;;;;;;;;;5020247;28;20803;-74
2021/09/16 02:34:04;;;;;;;0.80;0.60;;;;;;;;;;5018762;28;21124;-74
2021/09/16 02:36:30;;;;;;;0.80;0.60;;;;;;;;;;5031482;28;20445;-74
2021/09/16 02:38:56;;;;;;;0.80;0.70;;;;;;;;;;5032594;28;20430;-74
2021/09/16 02:41:22;;;;;;;0.80;0.60;;;;;;;;;;5022687;28;20431;-74
2021/09/16 02:43:48;;;;;;;1.55;1.45;;;;;;;;;;5012779;28;20445;-74
2021/09/16 02:46:14;;;;;;;0.80;0.70;;;;;;;;;;5032631;28;20185;-74
2021/09/16 02:48:40;;;;;;;0.80;0.60;;;;;;;;;;5036127;28;20547;-74
2021/09/16 02:51:06;;;;;;;0.80;0.60;;;;;;;;;;5031656;28;20678;-74
2021/09/16 02:53:33;;;;;;;0.80;0.60;;;;;;;;;;5032219;28;20186;-73
2021/09/16 02:55:59;;;;;;;0.80;0.80;;;;;;;;;;5029279;28;20667;-74
2021/09/16 02:58:25;;;;;;;0.80;0.60;;;;;;;;;;5032177;28;20449;-74
2021/09/16 03:00:51;;;;;;;1.37;0.77;;;;;;;;;;5030846;28;20621;-74
2021/09/16 03:03:17;;;;;;;0.80;0.60;;;;;;;;;;5031644;28;20456;-74
2021/09/16 03:05:43;;;;;;;0.80;0.60;;;;;;;;;;5026690;28;20191;-73
2021/09/16 03:08:09;;;;;;;0.90;0.75;;;;;;;;;;5028721;28;20182;-74
2021/09/16 03:10:35;;;;;;;3.33;1.27;;;;;;;;;;5031588;28;20223;-74
2021/09/16 03:13:01;;;;;;;0.90;0.67;;;;;;;;;;5032250;28;20402;-74
2021/09/16 03:15:27;;;;;;;0.80;0.63;;;;;;;;;;5032694;28;20833;-74
2021/09/16 03:17:53;;;;;;;0.80;0.70;;;;;;;;;;5037810;28;20912;-74
2021/09/16 03:20:19;;;;;;;0.80;0.60;;;;;;;;;;5031149;28;21028;-74
2021/09/16 03:22:45;;;;;;;1.13;0.70;;;;;;;;;;5027395;28;20508;-74
2021/09/16 03:25:11;;;;;;;15.73;1.20;;;;;;;;;;5032015;28;20543;-74
2021/09/16 03:27:37;;;;;;;0.80;0.70;;;;;;;;;;5029759;28;20439;-74
2021/09/16 03:30:07;;;;;;;0.80;0.60;;;;;;;;;;5031969;28;20667;-74
2021/09/16 03:32:33;;;;;;;1.60;1.00;;;;;;;;;;5031553;28;20665;-74
2021/09/16 03:34:59;;;;;;;0.80;0.60;;;;;;;;;;5031830;28;20191;-74
2021/09/16 03:37:25;;;;;;;0.80;0.70;;;;;;;;;;5013722;28;20196;-74
2021/09/16 03:39:51;;;;;;;1.13;0.90;;;;;;;;;;5012118;28;20567;-74
2021/09/16 03:42:17;;;;;;;1.00;0.90;;;;;;;;;;5027544;28;20436;-74
2021/09/16 03:44:43;;;;;;;0.80;0.80;;;;;;;;;;5032271;28;20600;-74
2021/09/16 03:47:11;;;;;;;0.80;0.70;;;;;;;;;;5044393;28;20448;-74
2021/09/16 03:49:40;;;;;;;0.80;0.70;;;;;;;;;;5050352;28;20486;-74
2021/09/16 03:52:07;;;;;;;2.00;1.90;;;;;;;;;;5013727;28;20697;-74
2021/09/16 03:54:33;;;;;;;2.85;0.90;;;;;;;;;;5031437;28;20233;-74
2021/09/16 03:56:59;;;;;;;1.10;0.90;;;;;;;;;;5021323;28;20200;-74
2021/09/16 03:59:25;;;;;;;0.80;0.60;;;;;;;;;;5031554;28;20207;-74
2021/09/16 04:01:51;;;;;;;1.30;1.20;;;;;;;;;;5031251;28;20193;-74
2021/09/16 04:04:17;;;;;;;0.93;0.83;;;;;;;;;;5031474;28;20469;-74
2021/09/16 04:06:43;;;;;;;1.17;1.07;;;;;;;;;;5030570;28;20422;-74
2021/09/16 04:09:09;;;;;;;1.87;0.87;;;;;;;;;;5031462;28;20384;-74
2021/09/16 04:11:35;;;;;;;2.20;2.10;;;;;;;;;;5025806;28;20459;-74
2021/09/16 04:14:01;;;;;;;0.80;0.70;;;;;;;;;;5008233;28;20428;-74
2021/09/16 04:16:27;;;;;;;1.10;1.00;;;;;;;;;;5024770;28;20435;-74
2021/09/16 04:18:53;;;;;;;1.63;1.53;;;;;;;;;;5028792;28;20516;-74
2021/09/16 04:21:19;;;;;;;0.90;0.80;;;;;;;;;;5034542;28;20493;-74
2021/09/16 04:23:45;;;;;;;0.80;0.60;;;;;;;;;;5035446;28;20477;-74
2021/09/16 04:26:11;;;;;;;1.00;0.77;;;;;;;;;;5031159;28;20478;-74
2021/09/16 04:28:37;;;;;;;1.60;1.50;;;;;;;;;;5015252;28;20412;-73
2021/09/16 04:31:03;;;;;;;0.80;0.80;;;;;;;;;;5016840;28;20205;-73
2021/09/16 04:33:29;;;;;;;1.35;1.02;;;;;;;;;;5035019;28;20465;-72
2021/09/16 04:35:55;;;;;;;1.30;0.97;;;;;;;;;;5033502;28;20678;-72
2021/09/16 04:38:21;;;;;;;0.80;0.60;;;;;;;;;;5034372;28;20430;-72
2021/09/16 04:40:47;;;;;;;1.17;1.07;;;;;;;;;;5035050;28;20214;-72
2021/09/16 04:43:13;;;;;;;0.80;0.60;;;;;;;;;;5032478;28;20464;-72
2021/09/16 04:45:39;;;;;;;2.10;2.00;;;;;;;;;;5034259;28;20422;-72
2021/09/16 04:48:05;;;;;;;1.80;1.17;;;;;;;;;;5037776;28;20452;-73
2021/09/16 04:50:31;;;;;;;1.65;0.90;;;;;;;;;;5034383;28;20479;-73
2021/09/16 04:52:57;;;;;;;1.43;1.33;;;;;;;;;;5023064;28;20220;-72
2021/09/16 04:55:23;;;;;;;1.17;1.00;;;;;;;;;;5027460;28;20781;-72
2021/09/16 04:57:48;;;;;;;1.37;1.20;;;;;;;;;;5036955;28;20434;-72
2021/09/16 05:00:15;;;;;;;1.13;1.03;;;;;;;;;;5030090;28;20449;-72
2021/09/16 05:02:41;;;;;;;1.55;1.45;;;;;;;;;;5030402;28;20798;-72
2021/09/16 05:05:07;;;;;;;1.20;1.10;;;;;;;;;;5034277;28;20185;-72
2021/09/16 05:07:33;;;;;;;0.80;0.75;;;;;;;;;;5032618;28;20187;-72
2021/09/16 05:09:59;;;;;;;1.10;0.90;;;;;;;;;;5033453;28;20217;-72
2021/09/16 05:12:25;;;;;;;1.23;1.13;;;;;;;;;;5032179;28;20929;-72
2021/09/16 05:14:50;;;;;;;2.60;1.90;;;;;;;;;;5035929;28;20766;-72
2021/09/16 05:17:16;;;;;;;2.30;2.00;;;;;;;;;;5049094;28;20417;-72
2021/09/16 05:19:42;;;;;;;1.00;0.90;;;;;;;;;;5033747;28;20422;-72
2021/09/16 05:22:08;;;;;;;1.57;1.30;;;;;;;;;;5033824;28;20417;-72
2021/09/16 05:24:35;;;;;;;1.00;0.90;;;;;;;;;;5033889;28;20476;-72
2021/09/16 05:27:01;;;;;;;2.03;1.10;;;;;;;;;;5032398;28;20836;-72
2021/09/16 05:29:27;;;;;;;1.70;1.33;;;;;;;;;;5033371;28;20226;-72
2021/09/16 05:31:53;;;;;;;1.27;1.00;;;;;;;;;;5032628;28;20413;-72
2021/09/16 05:34:19;;;;;;;3.17;1.27;;;;;;;;;;5040708;28;20849;-72
2021/09/16 05:36:45;;;;;;;0.90;0.80;;;;;;;;;;5042288;28;20318;-73
2021/09/16 05:39:11;;;;;;;1.00;0.80;;;;;;;;;;5033934;28;20424;-72
2021/09/16 05:41:37;;;;;;;2.70;2.00;;;;;;;;;;5031907;28;20461;-72
2021/09/16 05:44:03;;;;;;;1.90;1.55;;;;;;;;;;5033421;28;20461;-72
2021/09/16 05:46:30;;;;;;;1.42;0.80;;;;;;;;;;5041070;28;20181;-73
2021/09/16 05:48:56;;;;;;;0.80;0.60;;;;;;;;;;5035035;28;20245;-73
2021/09/16 05:51:27;;;;;;;1.73;1.63;;;;;;;;;;5033224;28;20242;-72
2021/09/16 05:53:53;;;;;;;16.60;2.17;;;;;;;;;;5027087;28;20777;-72
2021/09/16 05:56:19;;;;;;;0.80;0.63;;;;;;;;;;5033093;28;20178;-72
2021/09/16 05:58:45;;;;;;;1.02;0.93;;;;;;;;;;5027262;28;20414;-72
2021/09/16 06:01:11;;;;;;;1.10;0.90;;;;;;;;;;5013773;28;20196;-72
2021/09/16 06:03:37;;;;;;;1.13;1.03;;;;;;;;;;5029578;28;20478;-72
2021/09/16 06:06:03;;;;;;;3.30;1.17;;;;;;;;;;5031840;28;20429;-72
2021/09/16 06:08:28;;;;;;;1.13;0.83;;;;;;;;;;5014725;28;20420;-72
2021/09/16 06:10:54;;;;;;;1.40;1.03;;;;;;;;;;5032516;28;20537;-72
2021/09/16 06:13:20;;;;;;;1.30;1.20;;;;;;;;;;5015994;28;20418;-72
2021/09/16 06:15:46;;;;;;;0.93;0.83;;;;;;;;;;5034551;28;20440;-71
2021/09/16 06:18:12;;;;;;;0.87;0.87;;;;;;;;;;5039963;28;20504;-72
2021/09/16 06:20:38;;;;;;;1.00;0.77;;;;;;;;;;5023362;28;20446;-72
2021/09/16 06:23:04;;;;;;;1.37;1.27;;;;;;;;;;5026940;28;20897;-72
2021/09/16 06:25:30;;;;;;;1.00;0.90;;;;;;;;;;5025813;28;20550;-72
2021/09/16 06:27:56;;;;;;;1.52;1.20;;;;;;;;;;5031151;28;20434;-72
2021/09/16 06:30:22;;;;;;;1.27;1.17;;;;;;;;;;5032116;28;20198;-72
2021/09/16 06:32:48;;;;;;;4.97;1.87;;;;;;;;;;5032494;28;20801;-72
2021/09/16 06:35:15;;;;;;;1.00;0.90;;;;;;;;;;5032219;28;20418;-72
2021/09/16 06:37:41;;;;;;;0.90;0.70;;;;;;;;;;5032288;28;20183;-72
2021/09/16 06:40:07;;;;;;;1.17;1.00;;;;;;;;;;5032583;28;20199;-72
2021/09/16 06:42:33;;;;;;;1.30;0.77;;;;;;;;;;5022001;28;20814;-73
2021/09/16 06:44:59;;;;;;;0.80;0.60;;;;;;;;;;5021569;28;20482;-73
2021/09/16 06:47:25;;;;;;;1.43;1.33;;;;;;;;;;5042709;28;20396;-72
2021/09/16 06:49:51;;;;;;;0.80;0.67;;;;;;;;;;5049436;28;20479;-73
2021/09/16 06:52:20;;;;;;;1.97;1.87;;;;;;;;;;5032650;28;20410;-73
2021/09/16 06:54:46;;;;;;;0.80;0.77;;;;;;;;;;5032787;28;20455;-73
2021/09/16 06:57:12;;;;;;;1.37;1.27;;;;;;;;;;5031879;28;20809;-73
2021/09/16 06:59:38;;;;;;;0.90;0.80;;;;;;;;;;5031060;28;20442;-72
2021/09/16 07:02:04;;;;;;;0.80;0.60;;;;;;;;;;5031931;28;20437;-72
2021/09/16 07:04:30;;;;;;;2.03;1.13;;;;;;;;;;5032139;28;20467;-73
2021/09/16 07:06:58;;;;;;;3.93;1.33;;;;;;;;;;5030739;28;20448;-72
2021/09/16 07:09:24;;;;;;;3.63;2.03;;;;;;;;;;5031978;28;20970;-72
2021/09/16 07:11:51;;;;;;;1.30;1.17;;;;;;;;;;5031466;28;20453;-72
2021/09/16 07:14:17;;;;;;;1.37;1.27;;;;;;;;;;5031690;28;20891;-73
2021/09/16 07:16:43;;;;;;;2.60;2.40;;;;;;;;;;5039606;28;20481;-73
2021/09/16 07:19:10;;;;;;;0.80;0.60;;;;;;;;;;5052219;28;20416;-73
2021/09/16 07:21:36;;;;;;;0.80;0.70;;;;;;;;;;5048688;28;20903;-73
2021/09/16 07:24:02;;;;;;;3.10;2.80;;;;;;;;;;5029789;28;20522;-73
2021/09/16 07:26:28;;;;;;;1.67;1.57;;;;;;;;;;5030804;28;20415;-72
2021/09/16 07:28:54;;;;;;;1.10;0.93;;;;;;;;;;5029121;28;20855;-73
2021/09/16 07:31:20;;;;;;;1.03;0.97;;;;;;;;;;5031861;28;20447;-73
2021/09/16 07:33:47;;;;;;;1.17;0.90;;;;;;;;;;5030966;28;20895;-73
2021/09/16 07:36:13;;;;;;;1.30;1.20;;;;;;;;;;5012318;28;20961;-73
2021/09/16 07:38:39;;;;;;;0.80;0.70;;;;;;;;;;5022878;28;20432;-73
2021/09/16 07:41:05;;;;;;;1.27;1.17;;;;;;;;;;5031105;28;20450;-73
2021/09/16 07:43:31;;;;;;;0.80;0.70;;;;;;;;;;5030538;28;20871;-72
2021/09/16 07:45:57;;;;;;;1.30;1.20;;;;;;;;;;5038513;28;20469;-72
2021/09/16 07:48:23;;;;;;;0.90;0.80;;;;;;;;;;5031439;28;20435;-72
2021/09/16 07:50:50;;;;;;;1.10;1.00;;;;;;;;;;5014353;28;20434;-72
2021/09/16 07:53:16;;;;;;;2.00;1.87;;;;;;;;;;5031682;28;20542;-72
2021/09/16 07:55:42;;;;;;;1.37;1.27;;;;;;;;;;5029806;28;20424;-72
2021/09/16 07:58:08;;;;;;;1.67;1.57;;;;;;;;;;5029688;28;20434;-72
2021/09/16 08:00:34;;;;;;;0.80;0.60;;;;;;;;;;5030634;28;20415;-73
2021/09/16 08:03:00;;;;;;;1.10;0.90;;;;;;;;;;5030915;28;20836;-73
2021/09/16 08:05:26;;;;;;;2.20;0.80;;;;;;;;;;5030559;28;20427;-73
2021/09/16 08:07:52;;;;;;;3.30;1.13;;;;;;;;;;5026966;28;20439;-73
2021/09/16 08:10:18;;;;;;;1.30;1.07;;;;;;;;;;5029021;28;20463;-72
2021/09/16 08:12:44;;;;;;;1.77;1.10;;;;;;;;;;5029843;28;20402;-71
2021/09/16 08:15:11;;;;;;;1.67;1.57;;;;;;;;;;5031087;28;20424;-72
2021/09/16 08:17:37;;;;;;;2.13;1.00;;;;;;;;;;5038030;28;20430;-72
2021/09/16 08:20:06;;;;;;;1.57;1.47;;;;;;;;;;5030401;28;20644;-72
2021/09/16 08:22:32;;;;;;;1.03;0.90;;;;;;;;;;5028383;28;20427;-72
2021/09/16 08:24:58;;;;;;;2.13;2.03;;;;;;;;;;5030700;28;20854;-72
2021/09/16 08:27:24;;;;;;;7.03;1.27;;;;;;;;;;5028122;28;21027;-72
2021/09/16 08:29:50;;;;;;;1.37;1.27;;;;;;;;;;5024099;28;20959;-72
2021/09/16 08:32:17;;;;;;;4.63;1.17;;;;;;;;;;5029878;28;21935;-72
2021/09/16 08:35:04;;;;;;;0.80;0.60;;;;;;;;;;5028739;28;21078;-73
2021/09/16 08:37:30;;;;;;;1.07;0.90;;;;;;;;;;5022606;28;20436;-73
2021/09/16 08:39:56;;;;;;;2.13;2.03;;;;;;;;;;5029609;28;20458;-73
2021/09/16 08:42:24;;;;;;;1.33;1.13;;;;;;;;;;5027955;28;21239;-72
2021/09/16 08:44:52;;;;;;;1.33;1.10;;;;;;;;;;5032090;28;20525;-72
2021/09/16 08:47:18;;;;;;;1.57;1.47;;;;;;;;;;5026157;28;20808;-73
2021/09/16 08:49:44;;;;;;;0.97;0.87;;;;;;;;;;5036261;28;20446;-72
2021/09/16 08:52:10;;;;;;;1.30;0.93;;;;;;;;;;5035406;28;20420;-71
2021/09/16 08:54:39;;;;;;;0.93;0.83;;;;;;;;;;5030814;28;20436;-71
2021/09/16 08:57:05;;;;;;;2.40;2.27;;;;;;;;;;5035416;22;21009;-72
2021/09/16 08:59:32;;;;;;;0.80;0.60;;;;;;;;;;5022750;28;20902;-72
2021/09/16 09:01:57;;;;;;;0.93;0.83;;;;;;;;;;5034830;28;20411;-72
2021/09/16 09:04:23;;;;;;;2.50;1.20;;;;;;;;;;5034692;28;20580;-72
2021/09/16 09:06:59;;;;;;;0.80;0.50;;;;;;;;;;5030252;28;20437;-72
2021/09/16 09:09:25;;;;;;;1.43;1.33;;;;;;;;;;5015604;28;20448;-73
2021/09/16 09:11:59;;;;;;;1.07;0.97;;;;;;;;;;5008103;28;20527;-72
2021/09/16 09:14:30;;;;;;;0.90;0.80;;;;;;;;;;5009400;28;20455;-72
2021/09/16 09:16:57;;;;;;;0.80;0.70;;;;;;;;;;5010672;28;20456;-72
2021/09/16 09:19:24;;;;;;;2.60;1.10;;;;;;;;;;5013616;28;20464;-72
2021/09/16 09:21:50;;;;;;;0.80;0.70;;;;;;;;;;5018935;28;20422;-72
2021/09/16 09:24:29;;;;;;;1.17;0.77;;;;;;;;;;5014150;28;20447;-72
2021/09/16 09:26:55;;;;;;;1.00;0.90;;;;;;;;;;5013371;28;21084;-72
2021/09/16 09:29:21;;;;;;;0.80;0.63;;;;;;;;;;5028033;28;20424;-72
2021/09/16 09:31:54;;;;;;;0.80;0.73;;;;;;;;;;5031734;28;20393;-72
2021/09/16 09:34:24;;;;;;;0.97;0.90;;;;;;;;;;5010665;28;20412;-72
2021/09/16 09:36:50;;;;;;;2.60;1.23;;;;;;;;;;5012640;28;20431;-72
2021/09/16 09:39:16;;;;;;;1.03;0.93;;;;;;;;;;5005924;28;20450;-72
2021/09/16 09:41:42;;;;;;;2.17;2.07;;;;;;;;;;5012746;28;20492;-72
2021/09/16 09:44:10;;;;;;;0.90;0.90;;;;;;;;;;5012423;28;20446;-72
2021/09/16 09:46:39;;;;;;;0.80;0.60;;;;;;;;;;5012577;28;20420;-72
2021/09/16 09:49:06;;;;;;;0.80;0.60;;;;;;;;;;5013985;28;20406;-72
2021/09/16 09:51:45;;;;;;;0.80;0.50;;;;;;;;;;5012231;28;20397;-73
2021/09/16 09:54:34;;;;;;;0.80;0.50;;;;;;;;;;5011629;28;20813;-72
2021/09/16 09:57:05;;;;;;;0.90;0.70;;;;;;;;;;5001651;28;20483;-72
2021/09/16 09:59:49;;;;;;;0.80;0.70;;;;;;;;;;5008335;28;20442;-72
2021/09/16 10:02:16;;;;;;;1.07;0.97;;;;;;;;;;5010708;28;20403;-72
2021/09/16 10:04:42;;;;;;;0.80;0.60;;;;;;;;;;5013441;28;20436;-72
2021/09/16 10:07:08;;;;;;;0.90;0.90;;;;;;;;;;5011430;28;20828;-72
2021/09/16 10:09:34;;;;;;;0.90;0.80;;;;;;;;;;4998672;28;21030;-73
2021/09/16 10:12:00;;;;;;;1.10;0.90;;;;;;;;;;5011845;28;20444;-73
2021/09/16 10:14:26;;;;;;;0.80;0.67;;;;;;;;;;5013032;28;20911;-73
2021/09/16 10:16:53;;;;;;;0.80;0.80;;;;;;;;;;5012613;28;20429;-73
2021/09/16 10:19:19;;;;;;;0.80;0.80;;;;;;;;;;4995941;28;20790;-73
2021/09/16 10:21:45;;;;;;;0.93;0.60;;;;;;;;;;5012802;28;20401;-73
2021/09/16 10:24:16;;;;;;;1.00;0.90;;;;;;;;;;5013250;28;20468;-73
2021/09/16 10:26:44;;;;;;;0.80;0.60;;;;;;;;;;5002845;28;20411;-73
2021/09/16 10:29:28;;;;;;;0.80;0.50;;;;;;;;;;5025321;28;20760;-73
2021/09/16 10:32:15;;;;;;;0.80;0.70;;;;;;;;;;5032736;28;20383;-73
2021/09/16 10:34:44;;;;;;;0.80;0.70;;;;;;;;;;4998556;28;20843;-73
2021/09/16 10:37:14;;;;;;;1.00;0.80;;;;;;;;;;5009652;28;20899;-73
2021/09/16 10:39:41;;;;;;;0.80;0.70;;;;;;;;;;5002271;28;20480;-73
2021/09/16 10:42:07;;;;;;;0.90;0.80;;;;;;;;;;4994410;28;20408;-73
2021/09/16 10:44:34;;;;;;;1.00;0.70;;;;;;;;;;5010247;28;20462;-73
2021/09/16 10:47:14;;;;;;;0.80;0.67;;;;;;;;;;5004001;28;20454;-73
2021/09/16 10:49:40;;;;;;;0.80;0.60;;;;;;;;;;5011967;28;20396;-73
2021/09/16 10:52:12;;;;;;;0.93;0.83;;;;;;;;;;5012573;28;20403;-73
2021/09/16 10:54:38;;;;;;;0.80;0.73;;;;;;;;;;5004512;28;20466;-73
2021/09/16 10:57:16;;;;;;;1.17;0.93;;;;;;;;;;5019799;28;20431;-73
2021/09/16 10:59:54;;;;;;;0.93;0.93;;;;;;;;;;5008040;28;20787;-73
2021/09/16 11:02:24;;;;;;;0.90;0.90;;;;;;;;;;5013868;28;20441;-73
2021/09/16 11:04:59;;;;;;;0.80;0.70;;;;;;;;;;5012848;28;20972;-73
2021/09/16 11:07:34;;;;;;;0.80;0.60;;;;;;;;;;5018520;28;20444;-73
2021/09/16 11:10:15;;;;;;;0.83;0.80;;;;;;;;;;5012198;28;20492;-73
2021/09/16 11:12:41;;;;;;;1.07;0.97;;;;;;;;;;5008448;28;20437;-73
2021/09/16 11:15:10;;;;;;;0.90;0.90;;;;;;;;;;5010791;28;20491;-73
2021/09/16 11:17:36;;;;;;;0.90;0.70;;;;;;;;;;5012840;28;20919;-73
2021/09/16 11:20:03;;;;;;;1.57;0.70;;;;;;;;;;5011996;28;20489;-73
2021/09/16 11:22:29;;;;;;;0.80;0.80;;;;;;;;;;5002225;28;20410;-73
2021/09/16 11:24:56;;;;;;;0.80;0.70;;;;;;;;;;5001264;28;20574;-71
2021/09/16 11:27:28;;;;;;;1.00;0.90;;;;;;;;;;5014082;28;20463;-72
2021/09/16 11:29:55;;;;;;;0.90;0.80;;;;;;;;;;5008517;28;20412;-72
2021/09/16 11:32:21;;;;;;;0.77;0.60;;;;;;;;;;5017753;28;20935;-71
2021/09/16 11:34:50;;;;;;;0.80;0.73;;;;;;;;;;5008979;28;20442;-72
2021/09/16 11:37:18;;;;;;;1.00;0.80;;;;;;;;;;5000982;28;20458;-72
2021/09/16 11:39:44;;;;;;;1.27;1.10;;;;;;;;;;5007514;28;20876;-72
2021/09/16 11:42:15;;;;;;;0.97;0.60;;;;;;;;;;5008417;28;20408;-72
2021/09/16 11:45:14;;;;;;;0.83;0.70;;;;;;;;;;5013839;28;20492;-72
2021/09/16 11:47:41;;;;;;;0.80;0.60;;;;;;;;;;4967114;28;20442;-71
2021/09/16 11:50:08;;;;;;;1.23;1.00;;;;;;;;;;5011223;28;20464;-71
2021/09/16 11:52:37;;;;;;;1.87;0.83;;;;;;;;;;5011308;28;20432;-71
2021/09/16 11:55:11;;;;;;;0.80;0.67;;;;;;;;;;5011259;28;21050;-71
2021/09/16 11:57:53;;;;;;;1.20;0.70;;;;;;;;;;5017697;28;20538;-72
2021/09/16 12:00:31;;;;;;;0.80;0.67;;;;;;;;;;5011058;28;20408;-72
2021/09/16 12:02:58;;;;;;;0.80;0.67;;;;;;;;;;5009897;28;20465;-72
2021/09/16 12:05:30;;;;;;;1.33;1.23;;;;;;;;;;5011126;28;20512;-72
2021/09/16 12:07:56;;;;;;;0.80;0.80;;;;;;;;;;5010481;28;20437;-72
2021/09/16 12:10:22;;;;;;;0.80;0.67;;;;;;;;;;5011215;28;20434;-72
2021/09/16 12:12:48;;;;;;;1.80;1.70;;;;;;;;;;4999333;28;20411;-72
2021/09/16 12:15:20;;;;;;;0.90;0.70;;;;;;;;;;5011328;28;20433;-72
2021/09/16 12:17:46;;;;;;;0.80;0.60;;;;;;;;;;5009698;28;20407;-72
2021/09/16 12:20:12;;;;;;;0.80;0.80;;;;;;;;;;5009725;28;20405;-72
2021/09/16 12:22:38;;;;;;;1.27;0.70;;;;;;;;;;5011022;28;20414;-72
2021/09/16 12:25:05;;;;;;;0.80;0.60;;;;;;;;;;5010753;28;20593;-72
2021/09/16 12:27:31;;;;;;;1.30;1.20;;;;;;;;;;5016169;28;20435;-72
2021/09/16 12:29:57;;;;;;;0.93;0.83;;;;;;;;;;5010130;28;20425;-72
2021/09/16 12:32:32;;;;;;;1.20;0.77;;;;;;;;;;5012548;28;20405;-72
2021/09/16 12:34:58;;;;;;;1.10;0.80;;;;;;;;;;4997711;28;20416;-72
2021/09/16 12:37:32;;;;;;;0.80;0.70;;;;;;;;;;5014192;28;20532;-72
2021/09/16 12:39:58;;;;;;;0.70;0.60;;;;;;;;;;5014513;28;20558;-72
2021/09/16 12:42:25;;;;;;;0.80;0.70;;;;;;;;;;5013618;28;20516;-72
2021/09/16 12:44:51;;;;;;;0.77;0.60;;;;;;;;;;5014920;28;20473;-72
2021/09/16 12:47:18;;;;;;;1.30;1.00;;;;;;;;;;5013834;28;20442;-72
2021/09/16 12:49:50;;;;;;;1.00;0.90;;;;;;;;;;5014739;28;20430;-72
2021/09/16 12:52:22;;;;;;;0.80;0.63;;;;;;;;;;5013739;28;20786;-72
2021/09/16 12:54:52;;;;;;;0.93;0.83;;;;;;;;;;5014504;28;20432;-73
2021/09/16 12:57:31;;;;;;;0.80;0.60;;;;;;;;;;5016888;28;20857;-73
2021/09/16 13:00:02;;;;;;;1.00;0.90;;;;;;;;;;5012693;28;20409;-72
2021/09/16 13:02:30;;;;;;;0.80;0.73;;;;;;;;;;5014509;28;20483;-72
2021/09/16 13:05:05;;;;;;;1.10;1.00;;;;;;;;;;5013048;28;20993;-72
2021/09/16 13:07:32;;;;;;;0.70;0.60;;;;;;;;;;5012731;28;20452;-72
2021/09/16 13:10:17;;;;;;;0.70;0.60;;;;;;;;;;5015593;28;20425;-72
2021/09/16 13:12:45;;;;;;;0.70;0.60;;;;;;;;;;5018033;28;20417;-72
2021/09/16 13:15:12;;;;;;;0.83;0.70;;;;;;;;;;5014112;28;20495;-73
2021/09/16 13:17:38;;;;;;;0.70;0.53;;;;;;;;;;5012883;28;20912;-72
2021/09/16 13:20:05;;;;;;;0.70;0.60;;;;;;;;;;5014165;28;20518;-72
2021/09/16 13:22:31;;;;;;;0.90;0.60;;;;;;;;;;5020922;28;20424;-71
2021/09/16 13:24:57;;;;;;;0.80;0.70;;;;;;;;;;5013418;28;20440;-71
2021/09/16 13:27:23;;;;;;;0.80;0.70;;;;;;;;;;5011867;28;20452;-71
2021/09/16 13:29:49;;;;;;;2.70;0.73;;;;;;;;;;5013419;28;20401;-71
2021/09/16 13:32:16;;;;;;;0.70;0.60;;;;;;;;;;4996210;28;20427;-71
2021/09/16 13:34:42;;;;;;;4.20;0.83;;;;;;;;;;5019188;28;20508;-72
2021/09/16 13:37:08;;;;;;;0.80;0.70;;;;;;;;;;5013724;28;20941;-72
2021/09/16 13:39:34;;;;;;;0.70;0.50;;;;;;;;;;5014200;28;20442;-72
2021/09/16 13:42:01;;;;;;;0.70;0.60;;;;;;;;;;5020551;28;20408;-72
2021/09/16 13:44:27;;;;;;;0.90;0.60;;;;;;;;;;5012928;28;21154;-71
2021/09/16 13:46:53;;;;;;;0.70;0.60;;;;;;;;;;4994274;28;20732;-72
2021/09/16 13:49:19;;;;;;;0.80;0.70;;;;;;;;;;5021455;28;20402;-72
2021/09/16 13:51:46;;;;;;;0.80;0.70;;;;;;;;;;5019774;28;20425;-71
2021/09/16 13:54:12;;;;;;;0.70;0.50;;;;;;;;;;5029196;28;20380;-72
2021/09/16 13:56:38;;;;;;;0.70;0.50;;;;;;;;;;5012321;28;20427;-69
2021/09/16 13:59:04;;;;;;;0.70;0.60;;;;;;;;;;5012799;28;20442;-69
2021/09/16 14:01:30;;;;;;;0.70;0.63;;;;;;;;;;5013588;28;20423;-69
2021/09/16 14:03:56;;;;;;;0.80;0.63;;;;;;;;;;5013609;28;20457;-69
2021/09/16 14:06:22;;;;;;;0.70;0.60;;;;;;;;;;5013752;28;20442;-69
2021/09/16 14:08:48;;;;;;;1.13;1.13;;;;;;;;;;5009149;28;20782;-69
2021/09/16 14:11:14;;;;;;;0.70;0.50;;;;;;;;;;5006341;28;20501;-69
2021/09/16 14:13:41;;;;;;;0.70;0.50;;;;;;;;;;5014145;28;20513;-69
2021/09/16 14:16:07;;;;;;;0.70;0.60;;;;;;;;;;5008469;28;20541;-69
2021/09/16 14:18:33;;;;;;;0.93;0.70;;;;;;;;;;4993338;28;21007;-69
2021/09/16 14:20:59;;;;;;;0.70;0.60;;;;;;;;;;5012986;28;20431;-69
2021/09/16 14:23:25;;;;;;;0.70;0.50;;;;;;;;;;5010652;28;20584;-69
2021/09/16 14:25:51;;;;;;;0.80;0.70;;;;;;;;;;5008981;28;20545;-69
2021/09/16 14:28:17;;;;;;;1.10;0.70;;;;;;;;;;5008280;28;20470;-69
2021/09/16 14:30:43;;;;;;;0.70;0.50;;;;;;;;;;4990324;28;20434;-69
2021/09/16 14:33:12;;;;;;;0.70;0.50;;;;;;;;;;5008700;28;20885;-72
2021/09/16 14:35:39;;;;;;;0.70;0.50;;;;;;;;;;5007685;28;20449;-71
2021/09/16 14:38:05;;;;;;;0.70;0.50;;;;;;;;;;5009155;28;20441;-72
2021/09/16 14:40:32;;;;;;;0.80;0.60;;;;;;;;;;5008311;28;20433;-72
2021/09/16 14:42:57;;;;;;;0.70;0.60;;;;;;;;;;5008713;28;20433;-72